Time;durP1;ratioP1;P1;durP2;ratioP2;P2;SDS_P1;SDS_P2;PMS_P1;PMS_P2;Temp;Humidity;BMP_temperature;BMP_pressure;BME280_temperature;BME280_humidity;BME280_pressure;Samples;Min_cycle;Max_cycle;Signal;HPM_P1;HPM_P2
2021/08/08 00:02:37;;;;;;;5.28;4.87;;;;;;;17.78;100.00;98021.39;2280119;77;20967;-86
2021/08/08 00:05:36;;;;;;;5.70;5.20;;;;;;;17.76;100.00;98022.96;2279778;78;21002;-87
2021/08/08 00:08:37;;;;;;;6.25;5.65;;;;;;;17.74;100.00;98024.23;2280113;78;20992;-86
2021/08/08 00:11:38;;;;;;;6.47;5.85;;;;;;;17.72;100.00;98018.38;2279841;77;21078;-86
2021/08/08 00:14:39;;;;;;;6.17;5.35;;;;;;;17.70;100.00;98015.98;2279842;77;20952;-86
2021/08/08 00:17:40;;;;;;;6.15;5.55;;;;;;;17.67;100.00;98007.70;2279832;77;21361;-86
2021/08/08 00:20:40;;;;;;;7.83;5.70;;;;;;;17.62;100.00;97998.63;2279626;77;21544;-85
2021/08/08 00:23:42;;;;;;;6.70;6.10;;;;;;;17.61;100.00;98006.81;2279272;78;21091;-86
2021/08/08 00:26:43;;;;;;;7.22;5.42;;;;;;;17.63;100.00;97994.13;2279965;78;21435;-85
2021/08/08 00:29:43;;;;;;;6.12;5.53;;;;;;;17.66;100.00;97990.22;2279993;78;21066;-85
2021/08/08 00:32:44;;;;;;;6.90;5.80;;;;;;;17.70;100.00;97990.83;2280108;77;21014;-86
2021/08/08 00:35:45;;;;;;;6.05;5.50;;;;;;;17.73;100.00;97988.21;2280093;77;20996;-85
2021/08/08 00:38:46;;;;;;;6.67;5.72;;;;;;;17.73;100.00;97978.95;2279910;77;20979;-86
2021/08/08 00:41:46;;;;;;;6.60;6.00;;;;;;;17.72;100.00;97969.41;2279932;77;20947;-86
2021/08/08 00:44:47;;;;;;;7.83;6.30;;;;;;;17.74;100.00;97975.25;2280066;77;20992;-85
2021/08/08 00:47:48;;;;;;;8.23;5.85;;;;;;;17.74;100.00;97969.46;2279916;77;21003;-87
2021/08/08 00:50:48;;;;;;;5.58;5.03;;;;;;;17.73;100.00;97962.53;2279874;78;21498;-86
2021/08/08 00:53:49;;;;;;;5.97;5.47;;;;;;;17.75;100.00;97961.80;2280021;77;21000;-86
2021/08/08 00:56:50;;;;;;;6.00;5.22;;;;;;;17.76;100.00;97958.09;2280024;77;21533;-87
2021/08/08 00:59:51;;;;;;;5.65;5.15;;;;;;;17.79;100.00;97950.19;2279900;77;21289;-86
2021/08/08 01:02:52;;;;;;;5.70;5.20;;;;;;;17.80;100.00;97947.81;2279999;77;21031;-86
2021/08/08 01:05:52;;;;;;;5.50;5.00;;;;;;;17.83;100.00;97946.81;2279991;77;21006;-86
2021/08/08 01:08:53;;;;;;;5.60;5.10;;;;;;;17.85;100.00;97947.37;2279616;77;21035;-86
2021/08/08 01:11:54;;;;;;;4.60;4.20;;;;;;;17.86;100.00;97948.17;2280252;78;20963;-87
2021/08/08 01:14:55;;;;;;;5.62;5.12;;;;;;;17.86;100.00;97929.11;2280153;78;21011;-88
2021/08/08 01:17:55;;;;;;;5.45;4.40;;;;;;;17.87;100.00;97929.91;2280010;77;20963;-88
2021/08/08 01:20:56;;;;;;;6.00;5.40;;;;;;;17.88;100.00;97930.98;2256823;78;21042;-87
2021/08/08 01:23:57;;;;;;;5.42;4.92;;;;;;;17.91;100.00;97921.73;2279961;78;20944;-87
2021/08/08 01:26:58;;;;;;;4.70;4.20;;;;;;;17.96;100.00;97925.78;2279968;77;21018;-88
2021/08/08 01:29:59;;;;;;;5.25;4.75;;;;;;;18.00;100.00;97916.29;2279985;77;21051;-85
2021/08/08 01:32:59;;;;;;;3.95;3.65;;;;;;;18.04;100.00;97918.73;2280071;77;20952;-86
2021/08/08 01:36:00;;;;;;;5.08;4.70;;;;;;;18.09;100.00;97926.73;2279876;77;21054;-86
2021/08/08 01:39:01;;;;;;;4.05;3.72;;;;;;;18.13;100.00;97919.11;2279892;78;20964;-88
2021/08/08 01:42:02;;;;;;;4.37;3.98;;;;;;;18.13;100.00;97911.96;2280088;78;21502;-86
2021/08/08 01:45:03;;;;;;;5.25;4.85;;;;;;;18.13;100.00;97910.64;2280246;78;21037;-85
2021/08/08 01:48:03;;;;;;;5.75;4.65;;;;;;;18.12;100.00;97913.02;2279873;77;20969;-87
2021/08/08 01:51:04;;;;;;;6.35;4.78;;;;;;;18.13;100.00;97908.52;2279962;77;20975;-87
2021/08/08 01:54:05;;;;;;;4.85;4.17;;;;;;;18.16;100.00;97909.33;2279996;77;20979;-87
2021/08/08 01:57:06;;;;;;;5.60;3.72;;;;;;;18.18;100.00;97903.25;2279816;77;21346;-86
2021/08/08 02:00:06;;;;;;;4.30;4.00;;;;;;;18.23;100.00;97906.50;2279839;77;21509;-87
2021/08/08 02:03:09;;;;;;;6.22;4.83;;;;;;;18.24;100.00;97915.52;2279746;77;20996;-86
2021/08/08 02:06:09;;;;;;;4.92;4.42;;;;;;;18.24;100.00;97904.92;2279548;78;21012;-86
2021/08/08 02:09:10;;;;;;;4.72;4.33;;;;;;;18.24;100.00;97901.47;2279616;78;21015;-87
2021/08/08 02:12:11;;;;;;;4.10;3.70;;;;;;;18.24;100.00;97909.42;2280073;77;20947;-86
2021/08/08 02:15:12;;;;;;;4.53;4.12;;;;;;;18.20;100.00;97907.81;2280010;77;21055;-87
2021/08/08 02:18:13;;;;;;;4.70;4.22;;;;;;;18.17;100.00;97910.41;2280255;77;20991;-87
2021/08/08 02:21:13;;;;;;;4.35;4.05;;;;;;;18.19;100.00;97911.48;2280200;77;21062;-87
2021/08/08 02:24:14;;;;;;;4.65;4.28;;;;;;;18.17;100.00;97915.70;2279960;77;21074;-87
2021/08/08 02:27:15;;;;;;;4.28;3.87;;;;;;;18.18;100.00;97915.17;2280304;77;20947;-86
2021/08/08 02:30:16;;;;;;;4.80;4.40;;;;;;;18.17;100.00;97911.73;2280196;77;21114;-87
2021/08/08 02:33:17;;;;;;;4.87;4.25;;;;;;;18.19;100.00;97912.80;2280323;77;21502;-87
2021/08/08 02:36:17;;;;;;;5.35;4.60;;;;;;;18.22;100.00;97907.55;2280262;77;21011;-87
2021/08/08 02:39:18;;;;;;;5.05;4.17;;;;;;;18.23;100.00;97909.15;2280455;78;21482;-87
2021/08/08 02:42:19;;;;;;;3.58;3.27;;;;;;;18.24;100.00;97915.52;2280239;77;20975;-85
2021/08/08 02:45:19;;;;;;;4.65;3.72;;;;;;;18.27;100.00;97916.34;2280270;77;21002;-87
2021/08/08 02:48:20;;;;;;;6.37;4.25;;;;;;;18.30;100.00;97920.37;2280478;77;20982;-87
2021/08/08 02:51:21;;;;;;;3.87;3.55;;;;;;;18.32;100.00;97929.66;2280478;77;20947;-87
2021/08/08 02:54:22;;;;;;;3.65;3.35;;;;;;;18.34;100.00;97929.41;2280574;77;21034;-89
2021/08/08 02:57:23;;;;;;;4.30;3.90;;;;;;;18.35;100.00;97934.45;2280593;77;20917;-89
2021/08/08 03:00:23;;;;;;;3.52;3.33;;;;;;;18.38;100.00;97935.83;2280514;77;21023;-89
2021/08/08 03:03:24;;;;;;;3.47;3.17;;;;;;;18.38;100.00;97929.20;2280529;77;20986;-88
2021/08/08 03:06:25;;;;;;;3.90;3.60;;;;;;;18.41;100.00;97933.47;2280339;77;21000;-89
2021/08/08 03:09:26;;;;;;;3.65;3.35;;;;;;;18.42;100.00;97933.74;2280118;78;21051;-88
2021/08/08 03:12:27;;;;;;;3.27;3.08;;;;;;;18.43;100.00;97939.84;2280221;77;21545;-87
2021/08/08 03:15:27;;;;;;;4.15;3.22;;;;;;;18.44;100.00;97938.27;2280195;78;20940;-87
2021/08/08 03:18:28;;;;;;;3.70;3.45;;;;;;;18.47;100.00;97949.72;2280600;77;21531;-87
2021/08/08 03:21:29;;;;;;;3.60;3.40;;;;;;;18.50;100.00;97956.36;2280358;78;20967;-87
2021/08/08 03:24:30;;;;;;;3.52;2.95;;;;;;;18.54;100.00;97957.45;2279977;78;21030;-88
2021/08/08 03:27:31;;;;;;;3.55;3.20;;;;;;;18.56;100.00;97959.84;2280401;78;21022;-88
2021/08/08 03:30:32;;;;;;;2.70;2.60;;;;;;;18.58;100.00;97960.42;2280183;78;20967;-89
2021/08/08 03:33:33;;;;;;;3.42;3.05;;;;;;;18.61;100.00;97963.37;2280460;77;21482;-88
2021/08/08 03:36:33;;;;;;;3.58;3.05;;;;;;;18.64;100.00;97964.19;2280448;78;20959;-87
2021/08/08 03:39:34;;;;;;;3.10;2.80;;;;;;;18.69;100.00;97977.54;2257181;78;21090;-87
2021/08/08 03:42:35;;;;;;;4.15;2.70;;;;;;;18.74;100.00;97984.23;2280494;77;21439;-86
2021/08/08 03:45:36;;;;;;;2.58;2.37;;;;;;;18.81;100.00;97988.52;2280318;77;21101;-86
2021/08/08 03:48:36;;;;;;;3.87;3.20;;;;;;;18.88;100.00;98003.72;2280314;77;21114;-87
2021/08/08 03:51:37;;;;;;;3.20;3.00;;;;;;;18.93;100.00;98004.58;2280458;77;20948;-87
2021/08/08 03:54:38;;;;;;;3.37;3.17;;;;;;;19.01;100.00;98019.22;2280512;77;21521;-86
2021/08/08 03:57:39;;;;;;;4.03;2.85;;;;;;;19.07;100.00;98024.06;2280517;78;21047;-87
2021/08/08 04:00:40;;;;;;;3.50;2.77;;;;;;;19.13;100.00;98021.74;2280398;77;21237;-87
2021/08/08 04:03:40;;;;;;;2.72;2.55;;;;;;;19.18;100.00;98017.27;2280193;77;21536;-88
2021/08/08 04:06:41;;;;;;;2.90;2.70;;;;;;;19.23;100.00;98012.02;2280560;78;20956;-87
2021/08/08 04:09:42;;;;;;;3.55;2.67;;;;;;;19.31;100.00;98016.06;2280317;77;21122;-88
2021/08/08 04:12:43;;;;;;;5.05;3.17;;;;;;;19.39;100.00;98023.57;2280460;77;20952;-88
2021/08/08 04:15:44;;;;;;;3.87;3.00;;;;;;;19.44;100.00;98020.94;2280555;77;21055;-87
2021/08/08 04:18:44;;;;;;;2.45;2.27;;;;;;;19.52;100.00;98015.70;2280557;78;21014;-87
2021/08/08 04:21:45;;;;;;;2.67;2.47;;;;;;;19.64;100.00;98015.02;2280433;77;21479;-87
2021/08/08 04:24:46;;;;;;;4.72;2.87;;;;;;;19.79;100.00;98015.12;2280485;77;20987;-89
2021/08/08 04:27:47;;;;;;;2.70;2.52;;;;;;;19.93;100.00;98022.11;2279979;78;21451;-89
2021/08/08 04:30:48;;;;;;;4.67;2.85;;;;;;;20.06;100.00;98036.82;2280622;77;21490;-89
2021/08/08 04:33:48;;;;;;;5.22;2.70;;;;;;;20.16;100.00;98037.67;2280668;77;20955;-87
2021/08/08 04:36:49;;;;;;;3.55;2.70;;;;;;;20.22;100.00;98043.83;2280408;78;20947;-86
2021/08/08 04:39:50;;;;;;;3.70;3.37;;;;;;;20.27;100.00;98058.98;2280596;78;21486;-86
2021/08/08 04:42:51;;;;;;;3.30;3.10;;;;;;;20.31;100.00;98066.20;2280281;77;20979;-87
2021/08/08 04:45:51;;;;;;;3.42;3.12;;;;;;;20.36;100.00;98072.06;2280092;77;21027;-88
2021/08/08 04:48:52;;;;;;;3.85;3.17;;;;;;;20.39;100.00;98074.19;2280138;77;20999;-88
2021/08/08 04:51:53;;;;;;;3.83;3.02;;;;;;;20.42;100.00;98086.46;2280339;77;20932;-87
2021/08/08 04:54:54;;;;;;;3.02;2.83;;;;;;;20.45;100.00;98103.78;2280509;77;20952;-87
2021/08/08 04:57:54;;;;;;;4.47;3.65;;;;;;;20.45;100.00;98105.11;2280339;77;21035;-88
2021/08/08 05:00:55;;;;;;;3.98;3.20;;;;;;;20.47;100.00;98110.96;2280265;77;20979;-87
2021/08/08 05:03:56;;;;;;;4.90;3.75;;;;;;;20.47;100.00;98114.95;2280450;78;21090;-89
2021/08/08 05:06:57;;;;;;;4.87;3.22;;;;;;;20.51;100.00;98121.38;2280268;78;20909;-88
2021/08/08 05:09:58;;;;;;;3.30;3.10;;;;;;;20.55;100.00;98115.00;2280044;78;21114;-88
2021/08/08 05:12:58;;;;;;;3.65;2.95;;;;;;;20.61;100.00;98125.94;2280117;77;20975;-88
2021/08/08 05:15:59;;;;;;;3.02;2.72;;;;;;;20.69;100.00;98135.56;2280090;77;21496;-89
2021/08/08 05:19:00;;;;;;;4.87;2.95;;;;;;;20.79;100.00;98149.44;2280008;77;20983;-87
2021/08/08 05:22:01;;;;;;;2.30;2.10;;;;;;;20.85;100.00;98163.58;2280028;78;20992;-88
2021/08/08 05:25:01;;;;;;;1.82;1.80;;;;;;;20.86;100.00;98174.48;2280026;78;20991;-88
2021/08/08 05:28:02;;;;;;;1.70;1.17;;;;;;;20.81;100.00;98177.11;2279502;78;21027;-88
2021/08/08 05:31:03;;;;;;;3.83;1.60;;;;;;;20.74;100.00;98180.79;2280066;77;20940;-88
2021/08/08 05:34:04;;;;;;;5.80;1.55;;;;;;;20.74;100.00;98195.95;2280407;77;21029;-89
2021/08/08 05:37:05;;;;;;;1.52;1.35;;;;;;;20.73;100.00;98182.38;2279564;77;20970;-89
2021/08/08 05:40:07;;;;;;;2.60;1.20;;;;;;;20.77;100.00;98188.80;2279669;78;22212;-89
2021/08/08 05:43:08;;;;;;;2.15;1.35;;;;;;;20.81;100.00;98175.25;2279663;78;22030;-89
2021/08/08 05:46:08;;;;;;;1.15;1.15;;;;;;;20.88;100.00;98185.66;2279635;77;20971;-89
2021/08/08 05:49:09;;;;;;;1.50;1.40;;;;;;;20.91;100.00;98195.78;2280204;77;20968;-84
2021/08/08 05:52:12;;;;;;;3.40;1.52;;;;;;;20.91;100.00;98224.52;2280274;77;21047;-89
2021/08/08 05:55:12;;;;;;;2.90;1.30;;;;;;;20.88;100.00;98229.56;2280039;78;21215;-86
2021/08/08 05:58:13;;;;;;;1.50;1.40;;;;;;;20.80;100.00;98236.70;2281771;77;20952;-89
2021/08/08 06:01:15;;;;;;;1.52;1.25;;;;;;;20.70;100.00;98249.41;2242400;78;22016;-91
2021/08/08 06:04:16;;;;;;;2.12;1.92;;;;;;;20.58;100.00;98257.58;2280102;77;21042;-88
2021/08/08 06:07:17;;;;;;;1.55;1.45;;;;;;;20.48;100.00;98258.80;2279215;77;21070;-89
2021/08/08 06:10:17;;;;;;;2.65;1.50;;;;;;;20.39;100.00;98258.47;2279699;77;21039;-89
2021/08/08 06:16:21;;;;;;;1.70;1.40;;;;;;;20.27;100.00;98280.94;2171869;82;21065;-90
2021/08/08 06:22:26;;;;;;;1.67;1.57;;;;;;;20.07;100.00;98286.34;2153780;82;21096;-87
2021/08/08 06:25:27;;;;;;;2.40;2.20;;;;;;;20.00;100.00;98306.98;2171727;81;20984;-86
2021/08/08 06:28:28;;;;;;;1.80;1.70;;;;;;;19.93;100.00;98315.67;2171466;82;21052;-86
2021/08/08 06:31:28;;;;;;;1.60;1.60;;;;;;;19.88;100.00;98324.41;2171229;81;21023;-88
2021/08/08 06:34:38;;;;;;;3.40;2.00;;;;;;;19.86;100.00;98323.86;2171781;81;21544;-90
2021/08/08 06:37:35;;;;;;;2.50;1.72;;;;;;;19.87;100.00;98328.65;2170768;82;21687;-88
2021/08/08 06:40:36;;;;;;;2.40;2.17;;;;;;;19.90;100.00;98332.13;2170604;81;21120;-90
2021/08/08 06:43:41;;;;;;;2.87;2.50;;;;;;;19.91;100.00;98335.58;2163599;82;21051;-88
2021/08/08 06:46:42;;;;;;;2.22;2.08;;;;;;;19.88;100.00;98339.55;2171291;81;21040;-90
2021/08/08 06:49:43;;;;;;;1.90;1.80;;;;;;;19.87;100.00;98343.26;2170592;81;20973;-90
2021/08/08 06:52:44;;;;;;;3.77;2.17;;;;;;;19.80;100.00;98355.39;2171829;81;21046;-88
2021/08/08 06:55:44;;;;;;;3.35;2.90;;;;;;;19.74;100.00;98366.20;2171975;81;20977;-89
2021/08/08 06:58:45;;;;;;;3.08;1.60;;;;;;;19.75;100.00;98381.08;2172003;81;21009;-89
2021/08/08 07:04:49;;;;;;;2.33;1.50;;;;;;;19.79;100.00;98376.37;2122566;83;21642;-87
2021/08/08 07:07:49;;;;;;;3.25;2.02;;;;;;;19.89;100.00;98379.14;2122619;84;21038;-89
2021/08/08 07:10:50;;;;;;;1.62;1.52;;;;;;;20.00;100.00;98381.92;2128824;83;21545;-89
2021/08/08 07:13:51;;;;;;;3.70;2.40;;;;;;;20.15;100.00;98382.91;2185316;81;21309;-88
2021/08/08 07:16:52;;;;;;;2.30;2.20;;;;;;;20.41;100.00;98390.63;2196845;81;21072;-90
2021/08/08 07:19:53;;;;;;;1.92;1.82;;;;;;;20.70;100.00;98397.03;2196459;81;21050;-88
2021/08/08 07:22:54;;;;;;;4.10;2.12;;;;;;;20.98;100.00;98402.06;2196323;81;21096;-89
2021/08/08 07:25:55;;;;;;;1.92;1.82;;;;;;;21.21;100.00;98398.76;2196053;81;21044;-88
2021/08/08 07:28:57;;;;;;;1.95;1.77;;;;;;;21.29;100.00;98408.97;2170808;81;21556;-92
2021/08/08 07:31:58;;;;;;;1.52;1.42;;;;;;;21.39;100.00;98416.22;2197045;81;21056;-86
2021/08/08 07:35:00;;;;;;;3.15;1.70;;;;;;;21.44;100.00;98421.05;2195928;81;20977;-89
2021/08/08 07:38:01;;;;;;;2.12;1.77;;;;;;;21.49;100.00;98428.30;2196760;81;20984;-90
2021/08/08 07:41:02;;;;;;;1.70;1.60;;;;;;;21.66;100.00;98437.42;2197420;81;21065;-90
2021/08/08 07:44:02;;;;;;;1.72;1.62;;;;;;;21.87;100.00;98428.50;2196782;81;21020;-84
2021/08/08 07:47:03;;;;;;;2.45;1.90;;;;;;;22.00;100.00;98421.34;2196202;81;21005;-86
2021/08/08 07:50:04;;;;;;;1.90;1.80;;;;;;;22.09;100.00;98431.01;2196497;80;21061;-86
2021/08/08 07:53:05;;;;;;;3.50;1.55;;;;;;;22.24;100.00;98438.27;2196340;81;20977;-87
2021/08/08 07:56:06;;;;;;;1.65;1.55;;;;;;;22.47;100.00;98439.66;2195826;81;21128;-88
2021/08/08 07:59:06;;;;;;;1.20;1.10;;;;;;;22.73;100.00;98444.52;2195697;81;21031;-89
2021/08/08 08:02:07;;;;;;;1.40;1.15;;;;;;;22.90;98.83;98443.24;2196779;81;20949;-88
2021/08/08 08:05:08;;;;;;;1.20;1.10;;;;;;;23.03;98.68;98450.45;2196520;81;20974;-86
2021/08/08 08:08:09;;;;;;;0.95;0.95;;;;;;;23.21;97.60;98455.25;2248490;78;21502;-87
2021/08/08 08:11:10;;;;;;;1.15;1.00;;;;;;;23.28;94.49;98445.91;2280194;77;21503;-87
2021/08/08 08:14:11;;;;;;;0.90;0.90;;;;;;;23.35;94.56;98461.67;2280518;77;21035;-86
2021/08/08 08:17:11;;;;;;;1.25;1.00;;;;;;;23.37;93.04;98454.72;2280624;77;20940;-87
2021/08/08 08:20:12;;;;;;;1.07;1.07;;;;;;;23.38;92.96;98454.45;2280614;78;20987;-86
2021/08/08 08:23:13;;;;;;;0.80;0.70;;;;;;;23.32;90.93;98453.37;2280683;77;20943;-86
2021/08/08 08:26:14;;;;;;;0.90;0.90;;;;;;;23.17;90.60;98448.86;2280617;77;20991;-86
2021/08/08 08:29:15;;;;;;;1.85;1.20;;;;;;;23.12;91.11;98442.97;2280377;77;21571;-86
2021/08/08 08:32:15;;;;;;;1.50;1.40;;;;;;;23.32;90.82;98448.86;2280442;77;21000;-86
2021/08/08 08:35:16;;;;;;;0.90;0.80;;;;;;;23.61;90.06;98441.09;2280331;77;21002;-86
2021/08/08 08:38:17;;;;;;;1.57;1.02;;;;;;;23.83;89.69;98456.80;2280311;77;20947;-87
2021/08/08 08:41:18;;;;;;;0.90;0.90;;;;;;;23.99;89.53;98454.34;2280584;77;21045;-87
2021/08/08 08:44:19;;;;;;;1.30;1.20;;;;;;;24.13;88.69;98447.87;2280483;78;20971;-87
2021/08/08 08:47:21;;;;;;;1.60;1.50;;;;;;;24.21;86.24;98447.84;2280485;77;21027;-87
2021/08/08 08:50:22;;;;;;;1.45;1.35;;;;;;;24.18;85.76;98441.17;2280820;78;21668;-86
2021/08/08 08:53:23;;;;;;;1.30;1.20;;;;;;;24.33;84.91;98438.47;2280639;78;20940;-85
2021/08/08 08:56:24;;;;;;;0.82;0.82;;;;;;;24.38;82.75;98441.63;2280666;77;21511;-86
2021/08/08 08:59:25;;;;;;;1.17;1.10;;;;;;;24.39;81.65;98457.95;2257442;78;21023;-88
2021/08/08 09:02:25;;;;;;;1.72;1.60;;;;;;;24.39;81.17;98457.41;2280561;77;21043;-86
2021/08/08 09:05:27;;;;;;;1.10;1.10;;;;;;;24.46;80.99;98457.11;2280610;77;21069;-86
2021/08/08 09:08:28;;;;;;;1.57;1.47;;;;;;;24.68;79.13;98459.38;2280263;78;21525;-85
2021/08/08 09:11:28;;;;;;;1.05;1.00;;;;;;;24.80;79.07;98451.03;2280051;78;21047;-86
2021/08/08 09:14:29;;;;;;;1.80;1.70;;;;;;;24.84;77.32;98456.88;2280534;77;20948;-86
2021/08/08 09:17:30;;;;;;;2.58;1.95;;;;;;;24.84;78.18;98466.25;2280177;78;20988;-86
2021/08/08 09:20:31;;;;;;;2.45;1.52;;;;;;;24.89;77.35;98470.78;2279951;77;21286;-86
2021/08/08 09:23:32;;;;;;;1.47;1.37;;;;;;;24.90;77.67;98464.34;2280087;77;20987;-85
2021/08/08 09:26:32;;;;;;;1.98;1.87;;;;;;;24.86;76.48;98474.80;2280083;77;20990;-86
2021/08/08 09:29:33;;;;;;;1.77;1.67;;;;;;;24.77;75.77;98487.17;2280038;77;21009;-86
2021/08/08 09:32:35;;;;;;;2.45;1.60;;;;;;;24.69;73.77;98498.48;2279947;77;21512;-85
2021/08/08 09:35:36;;;;;;;1.62;1.52;;;;;;;24.50;75.44;98502.30;2279616;78;21003;-84
2021/08/08 09:38:37;;;;;;;2.08;1.90;;;;;;;24.36;74.41;98510.68;2281164;77;20955;-85
2021/08/08 09:41:38;;;;;;;1.32;1.32;;;;;;;24.30;74.65;98512.53;2282959;77;20966;-83
2021/08/08 09:44:39;;;;;;;2.05;1.67;;;;;;;24.36;75.24;98508.80;2283584;78;20992;-85
2021/08/08 09:47:40;;;;;;;2.00;1.80;;;;;;;24.53;75.67;98499.64;2285341;77;21050;-88
2021/08/08 09:50:40;;;;;;;1.77;1.50;;;;;;;24.61;75.03;98500.41;2261936;78;20916;-83
2021/08/08 09:53:41;;;;;;;3.80;2.00;;;;;;;24.50;73.69;98500.16;2285239;77;20968;-87
2021/08/08 09:56:42;;;;;;;1.47;1.47;;;;;;;24.56;74.83;98515.13;2285426;78;20999;-86
2021/08/08 09:59:43;;;;;;;2.00;1.90;;;;;;;24.59;75.16;98517.25;2285150;77;21030;-89
2021/08/08 10:02:44;;;;;;;1.82;1.72;;;;;;;24.74;74.96;98525.21;2285073;77;21022;-86
2021/08/08 10:05:55;;;;;;;1.75;1.65;;;;;;;25.06;75.97;98526.13;2284804;77;20964;-89
2021/08/08 10:08:58;;;;;;;2.65;2.45;;;;;;;25.34;76.01;98531.29;2281678;78;21518;-84
2021/08/08 10:12:05;;;;;;;1.32;1.32;;;;;;;25.44;75.21;98537.11;2282440;78;21047;-84
2021/08/08 10:15:03;;;;;;;1.40;1.40;;;;;;;25.55;74.64;98527.09;2280864;78;21042;-83
2021/08/08 10:18:06;;;;;;;2.25;2.05;;;;;;;25.65;73.55;98531.02;2282938;78;21075;-84
2021/08/08 10:21:07;;;;;;;1.85;1.67;;;;;;;25.72;73.80;98538.23;2284637;78;20963;-84
2021/08/08 10:24:08;;;;;;;2.05;1.40;;;;;;;25.74;72.47;98544.91;2285060;77;21016;-88
2021/08/08 10:27:09;;;;;;;1.98;1.62;;;;;;;25.68;72.40;98555.91;2285322;77;21010;-85
2021/08/08 10:30:10;;;;;;;2.58;1.75;;;;;;;25.58;72.90;98562.16;2285165;78;20995;-83
2021/08/08 10:33:11;;;;;;;5.47;2.30;;;;;;;25.61;72.03;98561.63;2285306;77;20944;-84
2021/08/08 10:36:11;;;;;;;2.70;2.50;;;;;;;25.49;71.54;98563.30;2285302;77;21007;-84
2021/08/08 10:39:12;;;;;;;2.95;1.80;;;;;;;25.34;72.29;98562.64;2285128;78;21039;-85
2021/08/08 10:42:13;;;;;;;2.47;2.30;;;;;;;25.32;72.01;98561.56;2285092;78;21049;-88
2021/08/08 10:45:14;;;;;;;2.17;2.08;;;;;;;25.38;71.00;98572.51;2284782;78;21011;-88
2021/08/08 10:48:18;;;;;;;1.50;1.50;;;;;;;25.35;70.49;98577.64;2284990;77;21086;-84
2021/08/08 10:51:19;;;;;;;2.10;1.87;;;;;;;25.28;70.60;98579.28;2285319;78;20955;-83
2021/08/08 10:54:22;;;;;;;1.80;1.70;;;;;;;25.23;70.33;98575.28;2285415;77;21012;-83
2021/08/08 10:57:25;;;;;;;2.10;2.00;;;;;;;25.31;70.53;98585.41;2284525;78;20976;-82
2021/08/08 11:00:25;;;;;;;1.87;1.77;;;;;;;25.32;69.93;98583.53;2254432;78;21129;-88
2021/08/08 11:03:25;;;;;;;1.90;1.75;;;;;;;25.29;69.68;98590.26;2179883;82;20958;-88
2021/08/08 11:06:27;;;;;;;2.40;2.20;;;;;;;25.31;70.01;98580.59;2179758;82;21030;-87
2021/08/08 11:09:28;;;;;;;1.77;1.67;;;;;;;25.39;70.17;98572.77;2159194;82;21014;-84
2021/08/08 11:12:29;;;;;;;1.70;1.60;;;;;;;25.55;70.43;98578.02;2179466;82;21022;-82
2021/08/08 11:15:30;;;;;;;1.57;1.47;;;;;;;25.78;70.05;98576.77;2179409;82;20978;-81
2021/08/08 11:18:35;;;;;;;1.47;1.37;;;;;;;25.81;68.81;98579.44;2176857;82;21093;-81
2021/08/08 11:21:36;;;;;;;2.52;1.50;;;;;;;25.58;68.91;98585.49;2178596;82;21009;-82
2021/08/08 11:24:37;;;;;;;1.57;1.42;;;;;;;25.33;68.97;98589.98;2178418;82;21069;-82
2021/08/08 11:27:37;;;;;;;1.72;1.57;;;;;;;25.05;68.54;98590.66;2179132;82;20986;-85
2021/08/08 11:30:41;;;;;;;2.60;1.30;;;;;;;24.86;69.59;98593.14;2179366;82;20997;-84
2021/08/08 11:33:45;;;;;;;1.60;1.50;;;;;;;24.74;69.33;98579.29;2179175;82;21018;-81
2021/08/08 11:36:46;;;;;;;1.95;1.22;;;;;;;24.59;70.21;98578.27;2180089;82;21038;-83
2021/08/08 11:39:47;;;;;;;1.57;1.50;;;;;;;24.49;70.88;98575.63;2178824;82;20939;-86
2021/08/08 11:42:48;;;;;;;1.62;1.52;;;;;;;24.38;71.29;98569.52;2179365;81;20974;-85
2021/08/08 11:45:50;;;;;;;1.52;1.42;;;;;;;24.32;71.75;98571.97;2158922;82;20986;-87
2021/08/08 11:48:51;;;;;;;2.35;1.40;;;;;;;24.29;72.46;98573.00;2179800;80;21041;-84
2021/08/08 11:51:52;;;;;;;2.10;1.70;;;;;;;24.25;72.65;98577.30;2179204;82;21025;-86
2021/08/08 11:54:53;;;;;;;1.65;1.55;;;;;;;24.22;72.78;98577.83;2179372;82;20974;-87
2021/08/08 11:57:54;;;;;;;2.95;2.00;;;;;;;24.20;73.08;98588.80;2179427;82;20986;-88
2021/08/08 12:00:57;;;;;;;1.55;1.47;;;;;;;24.22;73.87;98585.31;2179641;82;21097;-88
2021/08/08 12:03:57;;;;;;;1.45;1.45;;;;;;;24.29;73.98;98589.05;2178613;82;21057;-86
2021/08/08 12:06:58;;;;;;;2.10;2.00;;;;;;;24.45;72.35;98595.20;2179026;82;20989;-86
2021/08/08 12:09:59;;;;;;;3.25;1.60;;;;;;;24.61;72.80;98599.43;2178120;82;21001;-91
2021/08/08 12:13:00;;;;;;;1.98;1.30;;;;;;;24.78;72.21;98607.93;2179554;82;21030;-88
2021/08/08 12:16:01;;;;;;;1.70;1.60;;;;;;;24.94;71.42;98619.35;2176997;82;20981;-87
2021/08/08 12:19:02;;;;;;;2.52;1.50;;;;;;;25.09;71.75;98617.98;2177337;82;20973;-84
2021/08/08 12:22:03;;;;;;;2.02;1.92;;;;;;;25.24;69.83;98625.94;2175756;82;21489;-87
2021/08/08 12:25:04;;;;;;;2.72;1.90;;;;;;;25.35;70.27;98629.34;2175658;82;21064;-86
2021/08/08 12:28:05;;;;;;;1.82;1.37;;;;;;;25.46;69.96;98623.38;2175643;82;21096;-87
2021/08/08 12:31:06;;;;;;;1.60;1.50;;;;;;;25.46;68.83;98623.38;2176692;82;21006;-87
2021/08/08 12:34:09;;;;;;;7.33;6.72;;;;;;;25.42;69.39;98629.02;2178142;82;20990;-87
2021/08/08 12:37:10;;;;;;;1.55;1.40;;;;;;;25.41;69.56;98636.80;2175994;82;21476;-86
2021/08/08 12:40:11;;;;;;;1.32;1.10;;;;;;;25.41;69.38;98630.89;2175718;82;20985;-87
2021/08/08 12:43:12;;;;;;;3.47;1.67;;;;;;;25.39;69.00;98630.38;2175779;82;21681;-86
2021/08/08 12:46:13;;;;;;;1.72;1.67;;;;;;;25.33;69.74;98634.19;2175604;82;20942;-87
2021/08/08 12:52:16;;;;;;;6.42;2.25;;;;;;;25.10;69.78;98622.80;2130916;83;21587;-86
2021/08/08 12:55:17;;;;;;;2.77;1.80;;;;;;;24.98;68.69;98633.01;2131259;83;21056;-87
2021/08/08 12:58:18;;;;;;;1.70;1.60;;;;;;;24.79;69.67;98634.97;2131324;83;21028;-86
2021/08/08 13:01:33;;;;;;;1.32;1.22;;;;;;;24.71;69.37;98645.44;2130283;83;21519;-87
2021/08/08 13:04:29;;;;;;;1.80;1.70;;;;;;;24.67;69.54;98643.82;2125391;84;21048;-87
2021/08/08 13:07:33;;;;;;;1.72;1.62;;;;;;;24.58;69.79;98642.78;2129623;84;21107;-87
2021/08/08 13:10:34;;;;;;;1.98;1.87;;;;;;;24.50;70.48;98645.47;2129892;84;21059;-86
2021/08/08 13:13:35;;;;;;;2.02;1.92;;;;;;;24.46;70.72;98640.95;2129968;84;21104;-86
2021/08/08 13:16:36;;;;;;;1.80;1.70;;;;;;;24.46;70.72;98640.95;2130358;84;21032;-87
2021/08/08 13:19:37;;;;;;;2.33;1.60;;;;;;;24.44;71.33;98649.25;2130002;84;21571;-87
2021/08/08 13:22:37;;;;;;;1.65;1.55;;;;;;;24.41;70.76;98647.09;2130294;84;21013;-87
2021/08/08 13:25:38;;;;;;;2.20;1.95;;;;;;;24.37;71.40;98646.05;2130188;84;21100;-86
2021/08/08 13:28:39;;;;;;;2.25;1.52;;;;;;;24.34;71.09;98649.28;2129983;84;21024;-86
2021/08/08 13:31:40;;;;;;;3.62;3.02;;;;;;;24.33;71.48;98649.81;2130108;84;21610;-87
2021/08/08 13:34:41;;;;;;;3.65;3.45;;;;;;;24.32;71.42;98657.58;2130015;84;21000;-86
2021/08/08 13:37:42;;;;;;;2.15;2.05;;;;;;;24.32;71.88;98655.41;2129713;84;21128;-86
2021/08/08 13:40:43;;;;;;;1.75;1.62;;;;;;;24.32;72.16;98656.75;2130029;84;20985;-86
2021/08/08 13:43:44;;;;;;;1.57;1.37;;;;;;;24.32;72.43;98661.59;2129993;84;20980;-86
2021/08/08 13:46:45;;;;;;;2.17;2.08;;;;;;;24.33;71.96;98658.38;2106108;83;21099;-86
2021/08/08 13:49:45;;;;;;;1.90;1.45;;;;;;;24.36;72.88;98659.97;2159055;82;20978;-86
2021/08/08 13:52:46;;;;;;;0.98;0.98;;;;;;;24.44;72.86;98657.28;2164644;81;21052;-86
2021/08/08 13:55:47;;;;;;;3.40;1.50;;;;;;;24.53;71.86;98654.85;2164710;81;21030;-86
2021/08/08 13:58:48;;;;;;;1.72;1.60;;;;;;;24.65;71.88;98655.34;2164796;81;21527;-86
2021/08/08 14:01:49;;;;;;;1.52;1.22;;;;;;;24.80;71.53;98655.84;2164591;81;21030;-85
2021/08/08 14:04:49;;;;;;;1.12;1.10;;;;;;;24.82;71.41;98645.12;2165087;81;21450;-86
2021/08/08 14:07:50;;;;;;;1.07;0.98;;;;;;;24.80;69.10;98643.80;2165075;81;21519;-86
2021/08/08 14:10:51;;;;;;;1.55;1.47;;;;;;;24.86;70.68;98658.20;2164930;81;21038;-86
2021/08/08 14:13:52;;;;;;;0.98;0.98;;;;;;;24.89;70.63;98651.52;2164990;81;21214;-84
2021/08/08 14:16:52;;;;;;;0.88;0.88;;;;;;;24.94;70.24;98650.15;2164398;81;21041;-86
2021/08/08 14:19:53;;;;;;;2.33;0.82;;;;;;;24.93;69.03;98649.34;2164762;81;20967;-86